sensor_id;sensor_type;location;lat;lon;timestamp;pressure;altitude;pressure_sealevel;temperature;humidity
46722;BME280;32455;43.430;23.136;2023-08-07T00:01:13;97467.72;;;16.30;100.00
46722;BME280;32455;43.430;23.136;2023-08-07T00:03:59;97473.19;;;16.15;100.00
46722;BME280;32455;43.430;23.136;2023-08-07T00:06:44;97461.50;;;16.24;100.00
46722;BME280;32455;43.430;23.136;2023-08-07T00:09:30;97480.16;;;16.41;100.00
46722;BME280;32455;43.430;23.136;2023-08-07T00:12:16;97489.34;;;16.50;100.00
46722;BME280;32455;43.430;23.136;2023-08-07T00:15:05;97492.56;;;16.52;100.00
46722;BME280;32455;43.430;23.136;2023-08-07T00:17:50;97497.50;;;16.45;100.00
46722;BME280;32455;43.430;23.136;2023-08-07T00:20:36;97497.00;;;16.33;100.00
46722;BME280;32455;43.430;23.136;2023-08-07T00:23:22;97484.59;;;16.07;100.00
46722;BME280;32455;43.430;23.136;2023-08-07T00:26:06;97491.34;;;16.14;100.00
46722;BME280;32455;43.430;23.136;2023-08-07T00:28:52;97508.44;;;16.05;100.00
46722;BME280;32455;43.430;23.136;2023-08-07T00:31:37;97491.38;;;16.04;100.00
46722;BME280;32455;43.430;23.136;2023-08-07T00:34:22;97509.00;;;16.07;100.00
46722;BME280;32455;43.430;23.136;2023-08-07T00:37:08;97526.66;;;15.68;100.00
46722;BME280;32455;43.430;23.136;2023-08-07T00:39:53;97515.78;;;15.53;100.00
46722;BME280;32455;43.430;23.136;2023-08-07T00:42:38;97515.25;;;15.71;100.00
46722;BME280;32455;43.430;23.136;2023-08-07T00:45:24;97513.06;;;15.48;100.00
46722;BME280;32455;43.430;23.136;2023-08-07T00:48:10;97525.28;;;15.71;100.00
46722;BME280;32455;43.430;23.136;2023-08-07T00:50:56;97533.66;;;15.74;100.00
46722;BME280;32455;43.430;23.136;2023-08-07T00:53:41;97529.91;;;15.81;100.00
46722;BME280;32455;43.430;23.136;2023-08-07T00:56:28;97532.31;;;15.97;100.00
46722;BME280;32455;43.430;23.136;2023-08-07T00:59:14;97555.31;;;16.05;100.00
46722;BME280;32455;43.430;23.136;2023-08-07T01:02:00;97546.13;;;16.06;100.00
46722;BME280;32455;43.430;23.136;2023-08-07T01:04:46;97542.88;;;15.99;100.00
46722;BME280;32455;43.430;23.136;2023-08-07T01:07:31;97550.97;;;16.24;100.00
46722;BME280;32455;43.430;23.136;2023-08-07T01:10:17;97526.53;;;16.35;100.00
46722;BME280;32455;43.430;23.136;2023-08-07T01:13:34;97546.56;;;16.49;100.00
46722;BME280;32455;43.430;23.136;2023-08-07T01:16:31;97541.13;;;16.54;100.00
46722;BME280;32455;43.430;23.136;2023-08-07T01:19:28;97545.94;;;16.77;100.00
46722;BME280;32455;43.430;23.136;2023-08-07T01:22:18;97542.72;;;16.75;100.00
46722;BME280;32455;43.430;23.136;2023-08-07T01:25:04;97544.06;;;16.73;100.00
46722;BME280;32455;43.430;23.136;2023-08-07T01:28:00;97545.56;;;16.99;100.00
46722;BME280;32455;43.430;23.136;2023-08-07T01:30:54;97542.56;;;17.06;100.00
46722;BME280;32455;43.430;23.136;2023-08-07T01:33:49;97547.66;;;17.18;100.00
46722;BME280;32455;43.430;23.136;2023-08-07T01:36:38;97529.56;;;16.98;100.00
46722;BME280;32455;43.430;23.136;2023-08-07T01:39:24;97522.78;;;17.00;100.00
46722;BME280;32455;43.430;23.136;2023-08-07T01:42:11;97542.75;;;17.20;100.00
46722;BME280;32455;43.430;23.136;2023-08-07T01:44:56;97540.66;;;17.07;100.00
46722;BME280;32455;43.430;23.136;2023-08-07T01:47:41;97535.00;;;16.98;100.00
46722;BME280;32455;43.430;23.136;2023-08-07T01:50:26;97545.78;;;17.13;100.00
46722;BME280;32455;43.430;23.136;2023-08-07T01:53:11;97547.22;;;17.00;100.00
46722;BME280;32455;43.430;23.136;2023-08-07T01:55:57;97546.94;;;16.97;100.00
46722;BME280;32455;43.430;23.136;2023-08-07T01:58:42;97538.28;;;16.90;100.00
46722;BME280;32455;43.430;23.136;2023-08-07T02:01:27;97543.75;;;16.85;100.00
46722;BME280;32455;43.430;23.136;2023-08-07T02:04:12;97544.59;;;16.80;100.00
46722;BME280;32455;43.430;23.136;2023-08-07T02:06:58;97557.28;;;16.90;100.00
46722;BME280;32455;43.430;23.136;2023-08-07T02:09:43;97563.78;;;16.94;100.00
46722;BME280;32455;43.430;23.136;2023-08-07T02:12:28;97577.84;;;17.06;100.00
46722;BME280;32455;43.430;23.136;2023-08-07T02:15:17;97580.88;;;16.94;100.00
46722;BME280;32455;43.430;23.136;2023-08-07T02:18:02;97590.09;;;16.98;100.00
46722;BME280;32455;43.430;23.136;2023-08-07T02:20:47;97612.53;;;17.19;100.00
46722;BME280;32455;43.430;23.136;2023-08-07T02:23:33;97603.31;;;17.15;100.00
46722;BME280;32455;43.430;23.136;2023-08-07T02:26:19;97606.38;;;16.98;100.00
46722;BME280;32455;43.430;23.136;2023-08-07T02:29:04;97615.09;;;16.85;100.00
46722;BME280;32455;43.430;23.136;2023-08-07T02:31:52;97606.19;;;16.74;100.00
46722;BME280;32455;43.430;23.136;2023-08-07T02:34:37;97598.41;;;16.32;100.00
46722;BME280;32455;43.430;23.136;2023-08-07T02:37:21;97591.91;;;16.08;100.00
46722;BME280;32455;43.430;23.136;2023-08-07T02:40:06;97591.66;;;15.94;100.00
46722;BME280;32455;43.430;23.136;2023-08-07T02:42:52;97586.78;;;16.06;100.00
46722;BME280;32455;43.430;23.136;2023-08-07T02:45:38;97603.56;;;15.88;100.00
46722;BME280;32455;43.430;23.136;2023-08-07T02:48:23;97593.47;;;15.58;100.00
46722;BME280;32455;43.430;23.136;2023-08-07T02:51:08;97581.56;;;15.43;100.00
46722;BME280;32455;43.430;23.136;2023-08-07T02:53:53;97579.66;;;15.49;100.00
46722;BME280;32455;43.430;23.136;2023-08-07T02:56:39;97588.84;;;15.33;100.00
46722;BME280;32455;43.430;23.136;2023-08-07T02:59:24;97592.69;;;15.47;100.00
46722;BME280;32455;43.430;23.136;2023-08-07T03:02:09;97597.28;;;15.46;100.00
46722;BME280;32455;43.430;23.136;2023-08-07T03:04:55;97602.69;;;15.46;100.00
46722;BME280;32455;43.430;23.136;2023-08-07T03:07:40;97602.34;;;15.17;100.00
46722;BME280;32455;43.430;23.136;2023-08-07T03:10:25;97598.34;;;15.45;100.00
46722;BME280;32455;43.430;23.136;2023-08-07T03:13:11;97608.94;;;15.57;100.00
46722;BME280;32455;43.430;23.136;2023-08-07T03:16:03;97615.50;;;15.82;100.00
46722;BME280;32455;43.430;23.136;2023-08-07T03:18:50;97627.94;;;16.18;100.00
46722;BME280;32455;43.430;23.136;2023-08-07T03:21:36;97629.03;;;16.33;100.00
46722;BME280;32455;43.430;23.136;2023-08-07T03:24:21;97624.69;;;16.37;100.00
46722;BME280;32455;43.430;23.136;2023-08-07T03:27:07;97625.47;;;16.47;100.00
46722;BME280;32455;43.430;23.136;2023-08-07T03:29:52;97641.75;;;16.58;100.00
46722;BME280;32455;43.430;23.136;2023-08-07T03:32:38;97631.47;;;16.49;100.00
46722;BME280;32455;43.430;23.136;2023-08-07T03:35:23;97648.22;;;16.67;100.00
46722;BME280;32455;43.430;23.136;2023-08-07T03:38:08;97645.81;;;16.75;100.00
46722;BME280;32455;43.430;23.136;2023-08-07T03:40:54;97651.75;;;16.67;100.00
46722;BME280;32455;43.430;23.136;2023-08-07T03:43:40;97643.88;;;16.71;100.00
46722;BME280;32455;43.430;23.136;2023-08-07T03:46:25;97636.88;;;16.39;100.00
46722;BME280;32455;43.430;23.136;2023-08-07T03:49:11;97655.59;;;16.46;100.00
46722;BME280;32455;43.430;23.136;2023-08-07T03:51:56;97656.66;;;16.50;100.00
46722;BME280;32455;43.430;23.136;2023-08-07T03:54:41;97652.88;;;16.51;100.00
46722;BME280;32455;43.430;23.136;2023-08-07T03:57:27;97666.66;;;16.65;100.00
46722;BME280;32455;43.430;23.136;2023-08-07T04:00:12;97662.91;;;16.50;100.00
46722;BME280;32455;43.430;23.136;2023-08-07T04:02:58;97670.50;;;16.43;100.00
46722;BME280;32455;43.430;23.136;2023-08-07T04:05:43;97669.41;;;16.60;100.00
46722;BME280;32455;43.430;23.136;2023-08-07T04:08:29;97680.53;;;16.73;100.00
46722;BME280;32455;43.430;23.136;2023-08-07T04:11:14;97675.06;;;16.78;100.00
46722;BME280;32455;43.430;23.136;2023-08-07T04:14:00;97660.44;;;16.80;100.00
46722;BME280;32455;43.430;23.136;2023-08-07T04:16:45;97660.13;;;16.86;100.00
46722;BME280;32455;43.430;23.136;2023-08-07T04:19:29;97668.53;;;16.95;100.00
46722;BME280;32455;43.430;23.136;2023-08-07T04:22:15;97663.34;;;17.09;100.00
46722;BME280;32455;43.430;23.136;2023-08-07T04:25:00;97663.06;;;17.10;100.00
46722;BME280;32455;43.430;23.136;2023-08-07T04:27:45;97643.03;;;16.91;100.00
46722;BME280;32455;43.430;23.136;2023-08-07T04:30:30;97659.56;;;16.94;100.00
46722;BME280;32455;43.430;23.136;2023-08-07T04:33:16;97664.66;;;17.16;100.00
46722;BME280;32455;43.430;23.136;2023-08-07T04:36:01;97658.09;;;17.27;100.00
46722;BME280;32455;43.430;23.136;2023-08-07T04:38:46;97660.53;;;17.29;100.00
46722;BME280;32455;43.430;23.136;2023-08-07T04:41:31;97653.19;;;17.35;100.00
46722;BME280;32455;43.430;23.136;2023-08-07T04:44:17;97676.44;;;17.51;100.00
46722;BME280;32455;43.430;23.136;2023-08-07T04:47:02;97668.06;;;17.42;100.00
46722;BME280;32455;43.430;23.136;2023-08-07T04:49:47;97682.97;;;17.50;100.00
46722;BME280;32455;43.430;23.136;2023-08-07T04:52:32;97677.78;;;17.59;100.00
46722;BME280;32455;43.430;23.136;2023-08-07T04:55:18;97669.09;;;17.57;100.00
46722;BME280;32455;43.430;23.136;2023-08-07T04:58:03;97670.41;;;17.64;100.00
46722;BME280;32455;43.430;23.136;2023-08-07T05:00:55;97685.88;;;17.69;100.00
46722;BME280;32455;43.430;23.136;2023-08-07T05:03:41;97672.56;;;17.67;100.00
46722;BME280;32455;43.430;23.136;2023-08-07T05:06:27;97689.06;;;17.81;100.00
46722;BME280;32455;43.430;23.136;2023-08-07T05:09:12;97675.00;;;17.74;100.00
46722;BME280;32455;43.430;23.136;2023-08-07T05:11:58;97694.13;;;17.98;100.00
46722;BME280;32455;43.430;23.136;2023-08-07T05:14:43;97688.69;;;17.98;100.00
46722;BME280;32455;43.430;23.136;2023-08-07T05:17:28;97699.22;;;18.10;100.00
46722;BME280;32455;43.430;23.136;2023-08-07T05:20:14;97698.34;;;18.19;100.00
46722;BME280;32455;43.430;23.136;2023-08-07T05:22:59;97708.69;;;18.17;100.00
46722;BME280;32455;43.430;23.136;2023-08-07T05:25:47;97714.38;;;18.21;100.00
46722;BME280;32455;43.430;23.136;2023-08-07T05:28:32;97706.19;;;18.26;100.00
46722;BME280;32455;43.430;23.136;2023-08-07T05:31:18;97713.94;;;18.43;100.00
46722;BME280;32455;43.430;23.136;2023-08-07T05:34:03;97718.47;;;18.52;100.00
46722;BME280;32455;43.430;23.136;2023-08-07T05:36:48;97713.28;;;18.56;100.00
46722;BME280;32455;43.430;23.136;2023-08-07T05:39:34;97725.72;;;18.67;100.00
46722;BME280;32455;43.430;23.136;2023-08-07T05:42:20;97713.47;;;18.65;100.00
46722;BME280;32455;43.430;23.136;2023-08-07T05:45:06;97725.88;;;18.81;99.79
46722;BME280;32455;43.430;23.136;2023-08-07T05:47:51;97723.44;;;18.80;100.00
46722;BME280;32455;43.430;23.136;2023-08-07T05:50:37;97724.97;;;18.91;100.00
46722;BME280;32455;43.430;23.136;2023-08-07T05:53:22;97730.47;;;18.86;97.97
46722;BME280;32455;43.430;23.136;2023-08-07T05:56:07;97716.28;;;18.89;97.97
46722;BME280;32455;43.430;23.136;2023-08-07T05:58:51;97728.75;;;18.95;96.29
46722;BME280;32455;43.430;23.136;2023-08-07T06:01:37;97726.44;;;19.07;95.38
46722;BME280;32455;43.430;23.136;2023-08-07T06:04:23;97710.66;;;19.04;89.72
46722;BME280;32455;43.430;23.136;2023-08-07T06:07:09;97725.75;;;19.20;91.66
46722;BME280;32455;43.430;23.136;2023-08-07T06:09:54;97719.66;;;19.29;96.15
46722;BME280;32455;43.430;23.136;2023-08-07T06:12:40;97727.03;;;19.28;87.58
46722;BME280;32455;43.430;23.136;2023-08-07T06:15:25;97712.53;;;19.33;99.11
46722;BME280;32455;43.430;23.136;2023-08-07T06:18:12;97711.75;;;19.51;91.55
46722;BME280;32455;43.430;23.136;2023-08-07T06:20:57;97712.22;;;19.58;91.22
46722;BME280;32455;43.430;23.136;2023-08-07T06:23:43;97717.88;;;19.67;90.31
46722;BME280;32455;43.430;23.136;2023-08-07T06:26:28;97717.06;;;19.66;89.48
46722;BME280;32455;43.430;23.136;2023-08-07T06:29:13;97718.28;;;19.74;91.02
46722;BME280;32455;43.430;23.136;2023-08-07T06:31:59;97727.88;;;19.71;86.10
46722;BME280;32455;43.430;23.136;2023-08-07T06:34:44;97736.47;;;19.84;86.45
46722;BME280;32455;43.430;23.136;2023-08-07T06:37:31;97745.94;;;19.86;86.48
46722;BME280;32455;43.430;23.136;2023-08-07T06:40:22;97740.88;;;19.98;85.28
46722;BME280;32455;43.430;23.136;2023-08-07T06:43:07;97743.38;;;19.95;88.84
46722;BME280;32455;43.430;23.136;2023-08-07T06:45:54;97739.56;;;19.96;85.73
46722;BME280;32455;43.430;23.136;2023-08-07T06:48:39;97744.41;;;19.99;89.65
46722;BME280;32455;43.430;23.136;2023-08-07T06:51:25;97747.13;;;19.99;84.82
46722;BME280;32455;43.430;23.136;2023-08-07T06:54:10;97745.66;;;20.07;87.60
46722;BME280;32455;43.430;23.136;2023-08-07T06:56:56;97752.22;;;20.24;89.24
46722;BME280;32455;43.430;23.136;2023-08-07T06:59:41;97742.94;;;20.25;88.73
46722;BME280;32455;43.430;23.136;2023-08-07T07:02:27;97742.50;;;20.37;89.51
46722;BME280;32455;43.430;23.136;2023-08-07T07:05:12;97748.56;;;20.34;87.26
46722;BME280;32455;43.430;23.136;2023-08-07T07:07:58;97745.25;;;20.18;84.39
46722;BME280;32455;43.430;23.136;2023-08-07T07:10:44;97736.47;;;20.21;82.63
46722;BME280;32455;43.430;23.136;2023-08-07T07:13:29;97739.25;;;20.35;86.54
46722;BME280;32455;43.430;23.136;2023-08-07T07:16:14;97737.25;;;20.41;85.07
46722;BME280;32455;43.430;23.136;2023-08-07T07:19:00;97754.50;;;20.55;83.56
46722;BME280;32455;43.430;23.136;2023-08-07T07:21:46;97752.63;;;20.56;88.52
46722;BME280;32455;43.430;23.136;2023-08-07T07:24:31;97743.53;;;20.60;88.38
46722;BME280;32455;43.430;23.136;2023-08-07T07:27:16;97734.69;;;20.82;90.07
46722;BME280;32455;43.430;23.136;2023-08-07T07:30:02;97743.25;;;21.08;89.11
46722;BME280;32455;43.430;23.136;2023-08-07T07:32:47;97731.06;;;20.87;85.09
46722;BME280;32455;43.430;23.136;2023-08-07T07:35:37;97743.56;;;21.20;86.10
46722;BME280;32455;43.430;23.136;2023-08-07T07:38:23;97743.63;;;21.15;86.27
46722;BME280;32455;43.430;23.136;2023-08-07T07:41:09;97735.66;;;21.19;88.78
46722;BME280;32455;43.430;23.136;2023-08-07T07:43:56;97747.09;;;21.07;83.17
46722;BME280;32455;43.430;23.136;2023-08-07T07:46:41;97759.91;;;21.07;82.29
46722;BME280;32455;43.430;23.136;2023-08-07T07:49:26;97757.50;;;21.05;79.38
46722;BME280;32455;43.430;23.136;2023-08-07T07:52:11;97748.69;;;21.08;78.05
46722;BME280;32455;43.430;23.136;2023-08-07T07:54:56;97751.34;;;21.27;82.35
46722;BME280;32455;43.430;23.136;2023-08-07T07:57:42;97762.63;;;21.39;80.23
46722;BME280;32455;43.430;23.136;2023-08-07T08:00:27;97754.50;;;21.20;79.45
46722;BME280;32455;43.430;23.136;2023-08-07T08:03:13;97760.09;;;21.43;81.03
46722;BME280;32455;43.430;23.136;2023-08-07T08:05:58;97763.44;;;21.54;81.63
46722;BME280;32455;43.430;23.136;2023-08-07T08:08:44;97769.72;;;21.54;78.85
46722;BME280;32455;43.430;23.136;2023-08-07T08:11:31;97767.19;;;21.71;80.52
46722;BME280;32455;43.430;23.136;2023-08-07T08:14:16;97736.63;;;21.56;78.42
46722;BME280;32455;43.430;23.136;2023-08-07T08:17:02;97745.06;;;21.95;83.13
46722;BME280;32455;43.430;23.136;2023-08-07T08:19:47;97744.91;;;21.50;80.37
46722;BME280;32455;43.430;23.136;2023-08-07T08:22:32;97747.00;;;21.95;79.21
46722;BME280;32455;43.430;23.136;2023-08-07T08:25:18;97748.41;;;22.06;79.34
46722;BME280;32455;43.430;23.136;2023-08-07T08:28:03;97736.72;;;22.00;79.94
46722;BME280;32455;43.430;23.136;2023-08-07T08:30:49;97742.47;;;21.77;77.77
46722;BME280;32455;43.430;23.136;2023-08-07T08:33:34;97760.38;;;21.83;77.39
46722;BME280;32455;43.430;23.136;2023-08-07T08:36:20;97744.84;;;22.06;81.99
46722;BME280;32455;43.430;23.136;2023-08-07T08:39:05;97766.44;;;22.07;76.48
46722;BME280;32455;43.430;23.136;2023-08-07T08:41:50;97769.97;;;22.21;77.06
46722;BME280;32455;43.430;23.136;2023-08-07T08:44:38;97766.63;;;22.11;78.53
46722;BME280;32455;43.430;23.136;2023-08-07T08:47:26;97774.84;;;22.47;79.16
46722;BME280;32455;43.430;23.136;2023-08-07T08:50:13;97746.75;;;22.05;73.00
46722;BME280;32455;43.430;23.136;2023-08-07T08:52:59;97762.16;;;22.51;78.55
46722;BME280;32455;43.430;23.136;2023-08-07T08:55:45;97746.00;;;22.63;79.82
46722;BME280;32455;43.430;23.136;2023-08-07T08:58:32;97756.31;;;22.66;76.83
46722;BME280;32455;43.430;23.136;2023-08-07T09:01:18;97740.19;;;22.42;75.74
46722;BME280;32455;43.430;23.136;2023-08-07T09:04:03;97741.88;;;22.74;77.74
46722;BME280;32455;43.430;23.136;2023-08-07T09:06:50;97736.38;;;22.52;77.21
46722;BME280;32455;43.430;23.136;2023-08-07T09:09:35;97731.69;;;22.66;76.61
46722;BME280;32455;43.430;23.136;2023-08-07T09:12:25;97764.22;;;22.90;81.46
46722;BME280;32455;43.430;23.136;2023-08-07T09:15:15;97757.50;;;22.74;74.10
46722;BME280;32455;43.430;23.136;2023-08-07T09:18:03;97746.47;;;22.65;75.25
46722;BME280;32455;43.430;23.136;2023-08-07T09:20:52;97737.03;;;22.71;73.30
46722;BME280;32455;43.430;23.136;2023-08-07T09:23:38;97755.72;;;22.92;74.65
46722;BME280;32455;43.430;23.136;2023-08-07T09:26:24;97767.25;;;22.89;74.87
46722;BME280;32455;43.430;23.136;2023-08-07T09:29:13;97754.38;;;22.67;73.43
46722;BME280;32455;43.430;23.136;2023-08-07T09:32:08;97753.97;;;22.96;72.27
46722;BME280;32455;43.430;23.136;2023-08-07T09:34:53;97749.28;;;22.74;76.57
46722;BME280;32455;43.430;23.136;2023-08-07T09:37:39;97743.81;;;22.96;75.97
46722;BME280;32455;43.430;23.136;2023-08-07T09:40:24;97759.47;;;23.36;78.36
46722;BME280;32455;43.430;23.136;2023-08-07T09:43:09;97760.53;;;23.17;75.12
46722;BME280;32455;43.430;23.136;2023-08-07T09:46:05;97755.44;;;23.33;76.75
46722;BME280;32455;43.430;23.136;2023-08-07T09:48:50;97750.56;;;23.21;76.08
46722;BME280;32455;43.430;23.136;2023-08-07T09:51:42;97743.84;;;23.36;76.12
46722;BME280;32455;43.430;23.136;2023-08-07T09:54:27;97762.63;;;23.20;71.72
46722;BME280;32455;43.430;23.136;2023-08-07T09:57:13;97757.91;;;23.43;77.28
46722;BME280;32455;43.430;23.136;2023-08-07T10:00:00;97770.06;;;23.60;73.58
46722;BME280;32455;43.430;23.136;2023-08-07T10:02:46;97764.31;;;23.70;72.51
46722;BME280;32455;43.430;23.136;2023-08-07T10:05:32;97759.31;;;23.72;75.28
46722;BME280;32455;43.430;23.136;2023-08-07T10:08:18;97761.53;;;23.61;72.92
46722;BME280;32455;43.430;23.136;2023-08-07T10:11:03;97745.28;;;23.65;74.83
46722;BME280;32455;43.430;23.136;2023-08-07T10:13:50;97747.69;;;23.66;72.82
46722;BME280;32455;43.430;23.136;2023-08-07T10:16:35;97749.81;;;23.78;72.84
46722;BME280;32455;43.430;23.136;2023-08-07T10:19:24;97750.78;;;23.73;72.95
46722;BME280;32455;43.430;23.136;2023-08-07T10:22:11;97754.53;;;23.55;71.19
46722;BME280;32455;43.430;23.136;2023-08-07T10:24:57;97748.53;;;23.84;77.51
46722;BME280;32455;43.430;23.136;2023-08-07T10:27:44;97740.00;;;23.86;72.51
46722;BME280;32455;43.430;23.136;2023-08-07T10:30:30;97743.38;;;23.91;71.01
46722;BME280;32455;43.430;23.136;2023-08-07T10:33:16;97748.41;;;24.07;71.40
46722;BME280;32455;43.430;23.136;2023-08-07T10:36:08;97741.97;;;24.20;73.02
46722;BME280;32455;43.430;23.136;2023-08-07T10:39:12;97747.13;;;24.13;69.50
46722;BME280;32455;43.430;23.136;2023-08-07T10:41:59;97732.75;;;24.07;73.97
46722;BME280;32455;43.430;23.136;2023-08-07T10:44:48;97731.47;;;24.22;70.00
46722;BME280;32455;43.430;23.136;2023-08-07T10:47:39;97726.94;;;24.35;72.32
46722;BME280;32455;43.430;23.136;2023-08-07T10:50:35;97732.78;;;24.24;67.62
46722;BME280;32455;43.430;23.136;2023-08-07T10:53:32;97734.59;;;24.38;68.28
46722;BME280;32455;43.430;23.136;2023-08-07T10:59:13;97728.09;;;24.60;68.93
46722;BME280;32455;43.430;23.136;2023-08-07T11:01:59;97741.50;;;24.44;67.63
46722;BME280;32455;43.430;23.136;2023-08-07T11:04:44;97726.78;;;24.22;66.11
46722;BME280;32455;43.430;23.136;2023-08-07T11:07:30;97730.66;;;24.65;71.42
46722;BME280;32455;43.430;23.136;2023-08-07T11:10:15;97707.91;;;24.38;69.75
46722;BME280;32455;43.430;23.136;2023-08-07T11:13:01;97724.06;;;24.57;68.81
46722;BME280;32455;43.430;23.136;2023-08-07T11:15:46;97729.84;;;24.73;67.42
46722;BME280;32455;43.430;23.136;2023-08-07T11:18:32;97723.56;;;24.29;67.69
46722;BME280;32455;43.430;23.136;2023-08-07T11:21:18;97718.75;;;24.43;71.95
46722;BME280;32455;43.430;23.136;2023-08-07T11:24:04;97724.34;;;24.73;73.49
46722;BME280;32455;43.430;23.136;2023-08-07T11:26:50;97731.47;;;24.65;72.90
46722;BME280;32455;43.430;23.136;2023-08-07T11:29:36;97713.56;;;24.33;68.76
46722;BME280;32455;43.430;23.136;2023-08-07T11:32:21;97717.91;;;24.60;70.14
46722;BME280;32455;43.430;23.136;2023-08-07T11:35:07;97714.03;;;24.61;70.28
46722;BME280;32455;43.430;23.136;2023-08-07T11:37:53;97714.03;;;24.61;70.82
46722;BME280;32455;43.430;23.136;2023-08-07T11:40:39;97714.03;;;24.44;66.19
46722;BME280;32455;43.430;23.136;2023-08-07T11:43:24;97716.59;;;24.75;70.64
46722;BME280;32455;43.430;23.136;2023-08-07T11:46:11;97706.66;;;25.00;70.80
46722;BME280;32455;43.430;23.136;2023-08-07T11:48:56;97714.72;;;25.05;64.65
46722;BME280;32455;43.430;23.136;2023-08-07T11:51:42;97719.63;;;24.91;68.59
46722;BME280;32455;43.430;23.136;2023-08-07T11:54:27;97709.06;;;25.19;63.45
46722;BME280;32455;43.430;23.136;2023-08-07T11:57:31;97711.50;;;25.12;65.00
46722;BME280;32455;43.430;23.136;2023-08-07T12:00:17;97722.59;;;25.33;65.83
46722;BME280;32455;43.430;23.136;2023-08-07T12:03:02;97726.16;;;24.60;68.43
46722;BME280;32455;43.430;23.136;2023-08-07T12:05:48;97708.97;;;24.89;70.92
46722;BME280;32455;43.430;23.136;2023-08-07T12:08:38;97722.97;;;25.05;65.25
46722;BME280;32455;43.430;23.136;2023-08-07T12:11:24;97714.69;;;24.41;70.51
46722;BME280;32455;43.430;23.136;2023-08-07T12:14:13;97712.06;;;24.70;67.55
46722;BME280;32455;43.430;23.136;2023-08-07T12:17:04;97706.94;;;24.52;67.90
46722;BME280;32455;43.430;23.136;2023-08-07T12:19:50;97700.78;;;24.03;68.93
46722;BME280;32455;43.430;23.136;2023-08-07T12:22:35;97700.94;;;24.15;72.63
46722;BME280;32455;43.430;23.136;2023-08-07T12:25:21;97691.72;;;24.19;68.77
46722;BME280;32455;43.430;23.136;2023-08-07T12:28:06;97704.19;;;24.26;68.37
46722;BME280;32455;43.430;23.136;2023-08-07T12:30:52;97703.69;;;24.32;71.67
46722;BME280;32455;43.430;23.136;2023-08-07T12:33:37;97714.34;;;24.25;70.33
46722;BME280;32455;43.430;23.136;2023-08-07T12:36:21;97706.44;;;24.41;74.91
46722;BME280;32455;43.430;23.136;2023-08-07T12:39:07;97705.34;;;24.42;74.06
46722;BME280;32455;43.430;23.136;2023-08-07T12:41:53;97712.59;;;24.46;75.17
46722;BME280;32455;43.430;23.136;2023-08-07T12:44:38;97701.28;;;24.22;74.71
46722;BME280;32455;43.430;23.136;2023-08-07T12:47:23;97709.97;;;23.98;75.19
46722;BME280;32455;43.430;23.136;2023-08-07T12:50:09;97696.25;;;24.07;76.42
46722;BME280;32455;43.430;23.136;2023-08-07T12:52:55;97705.16;;;24.12;76.50
46722;BME280;32455;43.430;23.136;2023-08-07T12:55:41;97709.03;;;23.94;79.37
46722;BME280;32455;43.430;23.136;2023-08-07T12:58:26;97694.31;;;23.90;77.94
46722;BME280;32455;43.430;23.136;2023-08-07T13:01:14;97712.25;;;23.96;80.10
46722;BME280;32455;43.430;23.136;2023-08-07T13:03:59;97711.59;;;23.99;77.67
46722;BME280;32455;43.430;23.136;2023-08-07T13:06:44;97705.63;;;23.97;78.11
46722;BME280;32455;43.430;23.136;2023-08-07T13:09:30;97703.38;;;23.90;76.09
46722;BME280;32455;43.430;23.136;2023-08-07T13:12:16;97715.75;;;23.70;78.30
46722;BME280;32455;43.430;23.136;2023-08-07T13:15:02;97725.34;;;23.59;77.22
46722;BME280;32455;43.430;23.136;2023-08-07T13:17:47;97721.56;;;23.69;80.75
46722;BME280;32455;43.430;23.136;2023-08-07T13:20:32;97713.19;;;23.74;77.48
46722;BME280;32455;43.430;23.136;2023-08-07T13:23:19;97718.09;;;23.63;78.76
46722;BME280;32455;43.430;23.136;2023-08-07T13:26:04;97709.78;;;23.68;80.62
46722;BME280;32455;43.430;23.136;2023-08-07T13:28:50;97726.25;;;23.77;80.33
46722;BME280;32455;43.430;23.136;2023-08-07T13:31:35;97711.88;;;23.71;76.93
46722;BME280;32455;43.430;23.136;2023-08-07T13:34:20;97705.72;;;23.66;77.34
46722;BME280;32455;43.430;23.136;2023-08-07T13:37:06;97720.84;;;23.63;76.45
46722;BME280;32455;43.430;23.136;2023-08-07T13:39:52;97715.53;;;23.58;77.43
46722;BME280;32455;43.430;23.136;2023-08-07T13:42:39;97727.03;;;23.69;78.46
46722;BME280;32455;43.430;23.136;2023-08-07T13:45:24;97720.38;;;23.61;80.78
46722;BME280;32455;43.430;23.136;2023-08-07T13:48:09;97720.03;;;23.54;82.06
46722;BME280;32455;43.430;23.136;2023-08-07T13:50:54;97697.88;;;23.42;84.00
46722;BME280;32455;43.430;23.136;2023-08-07T13:53:41;97706.72;;;23.30;86.82
46722;BME280;32455;43.430;23.136;2023-08-07T13:56:27;97714.47;;;23.37;86.38
46722;BME280;32455;43.430;23.136;2023-08-07T13:59:13;97717.00;;;23.24;86.12
46722;BME280;32455;43.430;23.136;2023-08-07T14:01:58;97722.69;;;23.28;86.88
46722;BME280;32455;43.430;23.136;2023-08-07T14:04:44;97714.63;;;23.32;85.05
46722;BME280;32455;43.430;23.136;2023-08-07T14:07:32;97704.81;;;22.99;88.38
46722;BME280;32455;43.430;23.136;2023-08-07T14:10:18;97718.81;;;22.98;88.69
46722;BME280;32455;43.430;23.136;2023-08-07T14:13:04;97730.72;;;22.93;91.00
46722;BME280;32455;43.430;23.136;2023-08-07T14:15:50;97721.25;;;22.77;91.87
46722;BME280;32455;43.430;23.136;2023-08-07T14:18:36;97723.88;;;22.60;94.77
46722;BME280;32455;43.430;23.136;2023-08-07T14:21:20;97714.13;;;22.67;93.53
46722;BME280;32455;43.430;23.136;2023-08-07T14:24:05;97720.75;;;22.97;94.59
46722;BME280;32455;43.430;23.136;2023-08-07T14:26:51;97709.06;;;22.83;98.50